Terminal Aerodrome Forecast
Issued by NWS Mt. Holly, NJ

Home | Current Version | Previous Version | Text Only | Print | Product List | Glossary On
Versions: 1 2 3 4 5 6 7 8 9 10 11 12 13 14 15 16 17 18 19 20 21 22 23 24 25 26 27 28 29 30 31 32 33 34 35 36 37 38 39 40 41 42 43 44 45 46 47 48
000
FTUS41 KPHI 191100 RRA
TAFABE
TAF
KABE 191141Z 1912/2012 05007KT P6SM FEW080
     FM191600 08010KT P6SM SCT070
     FM192100 11007KT P6SM SCT060
     FM200300 11007KT P6SM BKN035
     FM200600 13004KT P6SM OVC025
      TEMPO 2009/2012 5SM -DZ BR BKN015=

USA.gov is the U.S. government's official web portal to all federal, state and local government web resources and services.